Time;durP1;ratioP1;P1;durP2;ratioP2;P2;SDS_P1;SDS_P2;PMS_P1;PMS_P2;Temp;Humidity;BMP_temperature;BMP_pressure;BME280_temperature;BME280_humidity;BME280_pressure;Samples;Min_cycle;Max_cycle;Signal;HPM_P1;HPM_P2
2023/09/04 04:00:32;;;;;;;1.27;1.17;;;12.20;97.30;;;;;;6018925;23;21245;-67
2023/09/04 04:02:57;;;;;;;7.50;1.60;;;12.20;97.30;;;;;;4985915;28;20543;-67
2023/09/04 04:05:24;;;;;;;6.50;1.53;;;12.20;97.30;;;;;;4987859;28;20654;-67
2023/09/04 04:07:50;;;;;;;2.80;1.53;;;12.20;97.30;;;;;;4987648;28;20177;-68
2023/09/04 04:10:16;;;;;;;1.67;1.53;;;12.20;97.30;;;;;;4987415;28;20473;-68
2023/09/04 04:12:41;;;;;;;1.50;1.40;;;12.10;97.30;;;;;;4968467;28;20434;-68
2023/09/04 04:15:08;;;;;;;1.47;1.37;;;12.10;97.30;;;;;;4968418;28;20501;-68
2023/09/04 04:17:36;;;;;;;2.30;1.73;;;12.10;97.30;;;;;;4969330;28;20205;-68
2023/09/04 04:20:06;;;;;;;2.23;2.10;;;12.10;97.30;;;;;;4968265;28;20529;-68
2023/09/04 04:22:32;;;;;;;1.33;1.23;;;12.00;97.30;;;;;;4968730;28;20437;-68
2023/09/04 04:24:58;;;;;;;1.73;1.53;;;12.00;97.30;;;;;;4968208;28;20857;-68
2023/09/04 04:27:23;;;;;;;4.20;2.77;;;12.00;97.30;;;;;;4970217;28;20186;-68
2023/09/04 04:29:51;;;;;;;1.37;1.27;;;12.00;97.30;;;;;;4973365;28;20218;-68
2023/09/04 04:32:16;;;;;;;2.17;1.17;;;12.00;97.30;;;;;;4973891;28;20194;-68
2023/09/04 04:34:42;;;;;;;3.07;1.73;;;12.00;97.30;;;;;;4972315;28;20431;-68
2023/09/04 04:37:08;;;;;;;1.70;1.60;;;12.00;97.30;;;;;;4973639;28;20205;-69
2023/09/04 04:39:33;;;;;;;2.00;1.60;;;12.00;97.30;;;;;;4973797;28;20225;-68
2023/09/04 04:41:59;;;;;;;1.97;1.40;;;12.00;97.30;;;;;;4973247;28;20217;-69
2023/09/04 04:44:25;;;;;;;2.13;1.83;;;12.00;97.30;;;;;;4972287;28;20190;-68
2023/09/04 04:46:51;;;;;;;1.47;1.23;;;12.00;97.30;;;;;;4973368;28;20516;-68
2023/09/04 04:49:21;;;;;;;1.50;1.40;;;12.00;97.30;;;;;;4973494;28;20220;-68
2023/09/04 04:51:46;;;;;;;3.60;1.70;;;12.00;97.30;;;;;;4972333;28;20293;-69
2023/09/04 04:54:12;;;;;;;2.40;1.90;;;12.00;97.30;;;;;;4973241;28;20496;-68
2023/09/04 04:56:39;;;;;;;1.23;1.23;;;12.00;97.30;;;;;;4972035;28;20190;-68
2023/09/04 04:59:05;;;;;;;2.87;1.57;;;12.10;97.30;;;;;;4971830;28;20213;-68
2023/09/04 05:01:31;;;;;;;1.20;1.10;;;12.10;97.30;;;;;;4971819;28;20560;-69
2023/09/04 05:03:56;;;;;;;3.10;1.77;;;12.10;97.30;;;;;;4972675;28;20768;-68
2023/09/04 05:06:22;;;;;;;4.20;2.40;;;12.10;97.30;;;;;;4973501;28;20202;-68
2023/09/04 05:08:48;;;;;;;4.80;1.97;;;12.10;97.30;;;;;;4971808;28;20221;-70
2023/09/04 05:11:13;;;;;;;1.67;1.57;;;12.10;97.30;;;;;;4974639;28;20198;-68
2023/09/04 05:13:39;;;;;;;1.33;1.23;;;12.10;97.30;;;;;;4976980;28;20293;-68
2023/09/04 05:16:05;;;;;;;3.53;2.50;;;12.20;97.30;;;;;;4969451;28;20194;-68
2023/09/04 05:18:31;;;;;;;1.57;1.47;;;12.20;97.30;;;;;;4970063;28;20189;-68
2023/09/04 05:20:57;;;;;;;2.60;2.33;;;12.20;97.30;;;;;;4972276;28;20461;-68
2023/09/04 05:23:23;;;;;;;2.67;2.07;;;12.20;97.30;;;;;;4968713;28;20628;-69
2023/09/04 05:25:53;;;;;;;1.03;0.97;;;12.30;97.30;;;;;;4969983;28;20182;-68
2023/09/04 05:28:19;;;;;;;2.30;1.53;;;12.30;97.30;;;;;;4961449;28;20178;-68
2023/09/04 05:30:45;;;;;;;1.40;1.20;;;12.30;97.30;;;;;;4968639;28;21066;-68
2023/09/04 05:33:11;;;;;;;7.03;1.93;;;12.40;97.30;;;;;;4968673;28;20492;-68
2023/09/04 05:35:37;;;;;;;4.30;1.63;;;12.40;97.30;;;;;;4970303;28;20806;-68
2023/09/04 05:38:03;;;;;;;1.90;1.80;;;12.40;97.30;;;;;;4969965;28;20178;-68
2023/09/04 05:40:29;;;;;;;5.33;1.43;;;12.50;97.30;;;;;;4970961;28;20824;-68
2023/09/04 05:42:54;;;;;;;1.70;1.60;;;12.50;97.30;;;;;;4970790;28;20196;-68
2023/09/04 05:45:21;;;;;;;1.53;1.43;;;12.60;97.30;;;;;;4972361;28;20178;-68
2023/09/04 05:47:46;;;;;;;1.50;1.40;;;12.60;97.30;;;;;;4971028;28;20218;-68
2023/09/04 05:50:12;;;;;;;1.50;1.40;;;12.60;97.30;;;;;;4972415;28;20497;-68
2023/09/04 05:52:38;;;;;;;1.20;1.10;;;12.70;97.30;;;;;;4971964;28;20236;-68
2023/09/04 05:55:04;;;;;;;1.83;1.40;;;12.70;97.30;;;;;;4970339;28;20846;-68
2023/09/04 05:57:30;;;;;;;1.30;1.20;;;12.80;97.30;;;;;;4970656;28;20648;-68
2023/09/04 05:59:55;;;;;;;1.20;1.10;;;12.90;97.30;;;;;;4970627;28;20610;-68
2023/09/04 06:02:21;;;;;;;1.60;1.43;;;12.90;97.30;;;;;;4971708;28;20260;-68
2023/09/04 06:04:46;;;;;;;2.90;1.77;;;12.90;97.30;;;;;;4971570;28;20210;-68
2023/09/04 06:07:14;;;;;;;1.67;1.53;;;13.00;97.30;;;;;;4971499;28;20202;-68
2023/09/04 06:09:40;;;;;;;3.03;2.23;;;13.00;97.30;;;;;;4971897;28;20293;-68
2023/09/04 06:12:08;;;;;;;6.73;3.60;;;13.10;97.30;;;;;;4970292;28;20523;-68
2023/09/04 06:14:34;;;;;;;3.30;1.60;;;13.20;97.30;;;;;;4970592;28;20922;-68
2023/09/04 06:17:00;;;;;;;7.63;3.83;;;13.20;97.30;;;;;;4971577;28;20505;-68
2023/09/04 06:19:27;;;;;;;5.33;2.90;;;13.30;97.30;;;;;;4971691;28;20430;-68
2023/09/04 06:21:53;;;;;;;4.30;1.30;;;13.40;97.30;;;;;;4965580;28;20853;-68
2023/09/04 06:24:19;;;;;;;7.03;2.30;;;13.40;97.30;;;;;;4971479;28;20424;-68
2023/09/04 06:26:44;;;;;;;3.07;2.83;;;13.50;97.30;;;;;;4969512;28;20741;-68
2023/09/04 06:29:10;;;;;;;1.50;1.40;;;13.60;97.30;;;;;;4968215;28;20213;-68
2023/09/04 06:31:36;;;;;;;3.93;3.20;;;13.60;97.30;;;;;;4969563;28;20753;-68
2023/09/04 06:34:03;;;;;;;1.30;1.20;;;13.70;97.30;;;;;;4971638;28;20183;-68
2023/09/04 06:36:29;;;;;;;2.43;1.67;;;13.80;97.30;;;;;;4971053;28;20565;-68
2023/09/04 06:38:54;;;;;;;1.97;1.60;;;13.80;97.30;;;;;;4971253;28;20429;-68
2023/09/04 06:41:21;;;;;;;4.13;3.40;;;13.90;97.30;;;;;;4971069;28;20968;-68
2023/09/04 06:43:47;;;;;;;1.90;1.80;;;14.00;97.30;;;;;;4971287;28;20190;-68
2023/09/04 06:46:13;;;;;;;1.40;1.30;;;14.10;97.30;;;;;;4969274;28;20425;-68
2023/09/04 06:48:39;;;;;;;2.23;2.03;;;14.20;97.30;;;;;;4970990;28;20961;-68
2023/09/04 06:51:05;;;;;;;2.93;2.73;;;14.30;97.30;;;;;;4970030;28;20465;-68
2023/09/04 06:53:30;;;;;;;3.60;1.87;;;14.40;97.30;;;;;;4971009;28;20558;-69
2023/09/04 06:55:56;;;;;;;1.93;1.80;;;14.50;97.30;;;;;;4970691;28;20186;-68
2023/09/04 06:58:22;;;;;;;3.97;2.30;;;14.60;97.30;;;;;;4969589;28;20717;-68
2023/09/04 07:00:48;;;;;;;1.00;0.90;;;14.70;97.30;;;;;;4969427;28;20752;-68
2023/09/04 07:03:13;;;;;;;1.77;1.67;;;14.80;97.30;;;;;;4970989;28;20334;-68
2023/09/04 07:05:39;;;;;;;2.23;2.03;;;14.90;97.30;;;;;;4969194;28;20225;-68
2023/09/04 07:08:05;;;;;;;1.80;1.73;;;15.00;97.30;;;;;;4969235;28;20294;-68
2023/09/04 07:10:31;;;;;;;6.20;2.97;;;15.00;97.30;;;;;;4969218;28;20639;-68
2023/09/04 07:12:58;;;;;;;2.33;2.17;;;15.10;97.30;;;;;;4969247;28;20190;-67
2023/09/04 07:15:24;;;;;;;2.43;2.23;;;15.20;97.30;;;;;;4970639;28;20688;-68
2023/09/04 07:17:49;;;;;;;3.40;2.43;;;15.30;97.30;;;;;;4970545;28;20422;-68
2023/09/04 07:20:15;;;;;;;1.33;1.23;;;15.40;97.30;;;;;;4968971;28;20190;-68
2023/09/04 07:22:41;;;;;;;6.20;2.03;;;15.50;97.30;;;;;;4970408;28;20187;-68
2023/09/04 07:25:07;;;;;;;4.47;2.53;;;15.60;97.30;;;;;;4968989;28;20182;-68
2023/09/04 07:27:33;;;;;;;3.53;2.40;;;15.70;97.30;;;;;;4971431;28;20186;-68
2023/09/04 07:29:59;;;;;;;2.70;2.50;;;15.80;97.30;;;;;;4971207;28;20524;-68
2023/09/04 07:32:25;;;;;;;4.27;2.67;;;15.90;97.30;;;;;;4970233;28;20205;-68
2023/09/04 07:34:56;;;;;;;9.00;2.47;;;16.00;97.30;;;;;;4969086;28;20426;-68
2023/09/04 07:37:28;;;;;;;3.17;2.27;;;16.10;97.30;;;;;;4970024;28;20174;-68
2023/09/04 07:39:54;;;;;;;2.40;1.70;;;16.20;97.30;;;;;;4966809;28;20492;-67
2023/09/04 07:42:21;;;;;;;2.90;1.97;;;16.30;97.30;;;;;;4968830;28;20445;-68
2023/09/04 07:44:47;;;;;;;1.87;1.77;;;16.40;97.30;;;;;;4968634;28;20472;-68
2023/09/04 07:47:13;;;;;;;3.00;1.50;;;16.50;97.30;;;;;;4969659;28;20421;-68
2023/09/04 07:49:38;;;;;;;4.57;2.77;;;16.50;97.30;;;;;;4970271;28;20213;-67
2023/09/04 07:52:04;;;;;;;1.87;1.50;;;16.70;97.30;;;;;;4970668;28;20629;-68
2023/09/04 07:54:29;;;;;;;2.50;2.30;;;16.80;97.30;;;;;;4970139;28;20573;-68
2023/09/04 07:56:56;;;;;;;2.60;1.67;;;16.80;97.30;;;;;;4968557;28;20178;-68
2023/09/04 07:59:22;;;;;;;18.43;1.70;;;16.90;97.30;;;;;;4968735;28;20188;-67
2023/09/04 08:01:47;;;;;;;3.20;1.67;;;17.00;97.30;;;;;;4968027;28;20541;-67
2023/09/04 08:04:16;;;;;;;8.73;1.90;;;17.00;97.30;;;;;;4968445;28;20281;-68
2023/09/04 08:06:41;;;;;;;2.17;1.83;;;17.10;97.30;;;;;;4968310;28;20186;-68
2023/09/04 08:09:07;;;;;;;1.87;1.77;;;17.20;97.30;;;;;;4969758;28;20520;-67
2023/09/04 08:11:34;;;;;;;1.63;1.53;;;17.30;97.30;;;;;;4968242;28;20198;-68
2023/09/04 08:13:59;;;;;;;4.90;1.40;;;17.40;97.30;;;;;;4968121;28;20182;-67
2023/09/04 08:16:25;;;;;;;1.30;1.20;;;17.40;97.30;;;;;;4969342;28;20432;-68
2023/09/04 08:18:50;;;;;;;1.03;0.93;;;17.50;97.30;;;;;;4970099;28;20198;-67
2023/09/04 08:21:16;;;;;;;2.00;1.60;;;17.60;97.30;;;;;;4968415;28;20582;-67
2023/09/04 08:23:41;;;;;;;1.90;1.43;;;17.70;97.30;;;;;;4968917;28;20186;-68
2023/09/04 08:26:08;;;;;;;1.40;1.30;;;17.80;97.30;;;;;;4968208;28;20190;-68
2023/09/04 08:28:34;;;;;;;1.40;1.30;;;18.00;97.30;;;;;;4968619;28;20190;-67
2023/09/04 08:31:00;;;;;;;2.20;1.50;;;18.00;97.30;;;;;;4968334;28;20534;-68
2023/09/04 08:33:26;;;;;;;1.40;1.20;;;18.10;97.30;;;;;;4968751;28;20178;-68
2023/09/04 08:35:51;;;;;;;1.57;1.30;;;18.20;97.30;;;;;;4969936;28;20504;-67
2023/09/04 08:38:17;;;;;;;2.10;0.90;;;18.30;97.30;;;;;;4968353;28;20457;-68
2023/09/04 08:40:43;;;;;;;2.70;1.47;;;18.40;97.30;;;;;;4968600;28;20292;-67
2023/09/04 08:43:10;;;;;;;1.20;1.10;;;18.40;97.30;;;;;;4968436;28;20183;-67
2023/09/04 08:45:36;;;;;;;2.73;1.50;;;18.50;97.30;;;;;;4968458;28;20418;-68
2023/09/04 08:48:03;;;;;;;1.67;1.60;;;18.60;97.30;;;;;;4969549;28;20417;-67
2023/09/04 08:50:30;;;;;;;1.07;0.97;;;18.70;97.30;;;;;;4968025;28;20985;-67
2023/09/04 08:52:56;;;;;;;4.87;1.30;;;18.70;97.30;;;;;;4963828;28;20942;-67
2023/09/04 08:55:22;;;;;;;0.87;0.80;;;18.70;97.30;;;;;;4968537;28;20518;-67
2023/09/04 08:57:48;;;;;;;1.00;0.90;;;18.80;97.30;;;;;;4967824;28;20190;-67
2023/09/04 09:00:15;;;;;;;1.33;1.30;;;18.90;97.30;;;;;;4968796;28;20179;-67
2023/09/04 09:02:43;;;;;;;0.87;0.80;;;19.00;97.30;;;;;;4967786;28;20225;-67
2023/09/04 09:05:09;;;;;;;1.47;1.37;;;19.10;97.30;;;;;;4969333;28;20433;-67
2023/09/04 09:07:39;;;;;;;1.20;1.10;;;19.10;97.30;;;;;;4968005;28;20433;-67
2023/09/04 09:10:07;;;;;;;1.57;1.47;;;19.20;97.30;;;;;;4969345;28;20462;-67
2023/09/04 09:12:33;;;;;;;3.13;1.53;;;19.30;97.30;;;;;;4961363;28;20437;-67
2023/09/04 09:14:59;;;;;;;1.10;1.00;;;19.40;97.30;;;;;;4970894;28;20417;-67
2023/09/04 09:17:26;;;;;;;1.17;1.07;;;19.40;97.30;;;;;;4972719;28;20203;-67
2023/09/04 09:19:51;;;;;;;1.30;1.20;;;19.50;97.30;;;;;;4973027;28;20458;-67
2023/09/04 09:22:19;;;;;;;0.90;0.87;;;19.60;97.30;;;;;;4971166;28;20502;-67
2023/09/04 09:24:55;;;;;;;2.20;1.27;;;19.70;97.30;;;;;;4972690;28;20186;-67
2023/09/04 09:27:22;;;;;;;1.10;1.00;;;19.80;97.30;;;;;;4971119;28;20429;-66
2023/09/04 09:29:48;;;;;;;12.57;1.20;;;19.80;97.30;;;;;;4972727;28;20461;-66
2023/09/04 09:32:19;;;;;;;2.50;1.00;;;19.80;97.30;;;;;;4971008;28;20541;-67
2023/09/04 09:34:52;;;;;;;0.80;0.70;;;19.90;96.70;;;;;;4971301;28;20844;-67
2023/09/04 09:37:19;;;;;;;1.53;1.43;;;19.90;96.30;;;;;;4971014;28;20429;-67
2023/09/04 09:39:44;;;;;;;1.20;1.10;;;19.90;95.30;;;;;;4971137;28;20479;-67
2023/09/04 09:42:10;;;;;;;3.37;1.57;;;20.00;95.80;;;;;;4972409;28;20532;-67
2023/09/04 09:44:36;;;;;;;1.07;1.00;;;20.10;96.10;;;;;;4972447;28;20670;-67
2023/09/04 09:47:02;;;;;;;1.33;0.90;;;20.10;96.30;;;;;;4971004;28;20277;-67
2023/09/04 09:49:30;;;;;;;1.07;0.90;;;20.30;96.50;;;;;;4972157;28;20210;-67
2023/09/04 09:51:56;;;;;;;1.17;1.10;;;20.40;96.40;;;;;;4974205;28;20228;-67
2023/09/04 09:54:39;;;;;;;1.13;1.10;;;20.50;95.60;;;;;;4971992;28;20418;-67
2023/09/04 09:57:10;;;;;;;1.10;1.00;;;20.50;94.70;;;;;;4971835;28;20422;-67
2023/09/04 09:59:38;;;;;;;1.17;1.13;;;20.50;94.40;;;;;;4972405;28;20979;-65
2023/09/04 10:02:05;;;;;;;1.37;1.17;;;20.60;95.30;;;;;;4971640;28;20463;-68
2023/09/04 10:04:32;;;;;;;1.20;1.10;;;20.70;95.20;;;;;;4971832;28;20429;-67
2023/09/04 10:07:05;;;;;;;1.00;0.90;;;20.80;94.70;;;;;;4971930;28;20413;-67
2023/09/04 10:09:42;;;;;;;0.90;0.80;;;20.90;94.50;;;;;;4965634;28;20469;-67
2023/09/04 10:12:24;;;;;;;1.10;1.00;;;21.00;94.20;;;;;;4969623;28;20989;-66
2023/09/04 10:14:55;;;;;;;1.20;1.17;;;21.10;93.80;;;;;;4963281;28;20924;-67
2023/09/04 10:17:35;;;;;;;2.10;1.73;;;21.20;93.90;;;;;;5005217;23;20493;-86
2023/09/04 10:20:04;;;;;;;1.37;1.00;;;21.30;92.70;;;;;;4992287;28;20421;-86
2023/09/04 10:22:43;;;;;;;1.20;1.10;;;21.40;93.60;;;;;;4991902;28;20461;-88
2023/09/04 10:25:37;;;;;;;1.37;1.23;;;21.50;93.30;;;;;;4989740;28;20421;-86
2023/09/04 10:28:12;;;;;;;2.80;1.03;;;21.70;93.30;;;;;;4968596;28;20533;-86
2023/09/04 10:30:41;;;;;;;1.20;1.10;;;21.70;92.10;;;;;;4964978;28;20461;-86
2023/09/04 10:33:08;;;;;;;0.90;0.83;;;21.80;92.10;;;;;;4973276;28;20751;-86
2023/09/04 10:35:34;;;;;;;1.47;1.40;;;21.80;92.00;;;;;;4972647;28;20438;-87
2023/09/04 10:38:00;;;;;;;1.10;1.00;;;21.80;92.10;;;;;;4972185;28;20425;-87
2023/09/04 10:40:28;;;;;;;1.00;0.90;;;21.90;92.30;;;;;;4972604;28;20182;-86
2023/09/04 10:42:54;;;;;;;1.00;0.90;;;21.90;91.90;;;;;;4972114;28;20422;-85
2023/09/04 10:45:20;;;;;;;1.90;1.27;;;22.00;92.30;;;;;;4972738;28;20992;-86
2023/09/04 10:47:47;;;;;;;0.90;0.80;;;22.00;92.70;;;;;;4972477;28;20181;-87
2023/09/04 10:50:33;;;;;;;1.73;1.03;;;22.10;92.50;;;;;;4972680;28;20572;-86
2023/09/04 10:53:00;;;;;;;1.27;1.10;;;22.20;92.80;;;;;;4973677;28;20832;-87
2023/09/04 10:55:27;;;;;;;1.77;1.33;;;22.20;92.40;;;;;;4972227;28;20442;-86
2023/09/04 10:57:58;;;;;;;0.90;0.90;;;22.30;92.70;;;;;;4972296;28;20473;-86
2023/09/04 11:00:33;;;;;;;1.73;1.17;;;22.40;92.80;;;;;;4972374;28;20429;-86
2023/09/04 11:03:18;;;;;;;2.80;1.10;;;22.50;93.00;;;;;;4971861;28;20421;-87
2023/09/04 11:06:05;;;;;;;1.00;0.90;;;22.60;92.40;;;;;;4972524;28;20446;-86
2023/09/04 11:08:32;;;;;;;1.03;0.80;;;22.70;92.70;;;;;;4971780;28;20425;-86
2023/09/04 11:11:05;;;;;;;3.17;1.53;;;22.80;92.00;;;;;;4973346;28;20461;-89
2023/09/04 11:13:38;;;;;;;1.30;1.03;;;22.90;91.10;;;;;;4971764;28;20437;-87
2023/09/04 11:16:06;;;;;;;3.30;1.33;;;22.90;90.20;;;;;;4971666;28;20458;-87
2023/09/04 11:18:34;;;;;;;0.93;0.87;;;22.90;90.90;;;;;;4971920;28;20426;-88
2023/09/04 11:21:01;;;;;;;1.27;1.10;;;23.00;91.40;;;;;;4972013;28;20580;-86
2023/09/04 11:23:31;;;;;;;1.03;1.03;;;23.00;90.50;;;;;;4973163;28;20422;-86
2023/09/04 11:25:56;;;;;;;9.53;1.50;;;23.10;90.10;;;;;;4972041;28;20445;-87
2023/09/04 11:28:25;;;;;;;1.63;1.10;;;23.10;89.70;;;;;;4971666;28;20429;-87
2023/09/04 11:30:58;;;;;;;1.20;1.00;;;23.20;90.00;;;;;;4971701;28;20588;-86
2023/09/04 11:33:29;;;;;;;1.77;1.67;;;23.20;89.10;;;;;;4978996;28;20432;-87
2023/09/04 11:36:04;;;;;;;0.80;0.70;;;23.20;89.60;;;;;;4971533;28;20452;-86
2023/09/04 11:38:31;;;;;;;1.53;1.33;;;23.20;87.10;;;;;;4971336;28;20510;-86
2023/09/04 11:40:57;;;;;;;1.07;0.97;;;23.20;89.20;;;;;;4972621;28;20975;-86
2023/09/04 11:43:24;;;;;;;1.10;1.00;;;23.30;89.30;;;;;;4971437;28;20509;-87
2023/09/04 11:45:55;;;;;;;0.80;0.70;;;23.40;90.50;;;;;;4971631;28;20594;-87
2023/09/04 11:48:25;;;;;;;1.30;1.20;;;23.50;90.10;;;;;;4971933;28;20956;-89
2023/09/04 11:50:51;;;;;;;1.80;0.93;;;23.60;90.10;;;;;;4972215;28;20477;-87
2023/09/04 11:53:18;;;;;;;1.20;1.10;;;23.70;90.90;;;;;;4973563;28;20452;-87
2023/09/04 11:55:44;;;;;;;0.90;0.90;;;23.90;90.10;;;;;;4972334;28;20437;-87
2023/09/04 11:58:10;;;;;;;1.47;1.37;;;24.00;87.70;;;;;;4972702;28;20476;-87
2023/09/04 12:00:36;;;;;;;2.63;1.60;;;24.10;88.30;;;;;;4972759;28;20190;-87
2023/09/04 12:03:01;;;;;;;2.53;2.00;;;24.10;87.40;;;;;;4984360;28;20422;-88
2023/09/04 12:05:27;;;;;;;0.80;0.70;;;24.20;88.50;;;;;;4983229;28;20214;-86
2023/09/04 12:07:53;;;;;;;1.23;1.17;;;24.30;88.70;;;;;;4971146;28;20182;-88
2023/09/04 12:10:19;;;;;;;0.90;0.80;;;24.40;89.20;;;;;;4970941;28;20325;-86
2023/09/04 12:12:44;;;;;;;1.00;0.93;;;24.50;89.10;;;;;;4972255;28;20182;-86
2023/09/04 12:15:10;;;;;;;1.00;0.90;;;24.60;89.30;;;;;;4972290;28;20178;-87
2023/09/04 12:17:35;;;;;;;1.00;0.90;;;24.80;88.40;;;;;;4970684;28;20214;-87
2023/09/04 12:20:08;;;;;;;0.70;0.70;;;24.70;86.30;;;;;;4971144;28;20217;-87
2023/09/04 12:22:33;;;;;;;1.00;0.90;;;24.70;86.50;;;;;;4971367;28;20189;-86
2023/09/04 12:25:08;;;;;;;0.70;0.70;;;24.60;86.30;;;;;;4970606;28;20430;-85
2023/09/04 12:27:35;;;;;;;1.60;1.50;;;24.60;85.80;;;;;;4971008;28;20606;-87
2023/09/04 12:30:01;;;;;;;1.57;1.10;;;24.50;86.20;;;;;;4970819;28;20549;-86
2023/09/04 12:32:26;;;;;;;1.47;1.33;;;24.50;86.70;;;;;;4970970;28;20878;-87
2023/09/04 12:35:06;;;;;;;1.47;1.03;;;24.50;87.20;;;;;;4970680;28;20635;-87
2023/09/04 12:37:36;;;;;;;1.20;1.10;;;24.70;88.20;;;;;;4971793;28;20188;-87
2023/09/04 12:40:05;;;;;;;1.57;1.00;;;24.80;87.90;;;;;;4971863;28;20448;-86
2023/09/04 12:42:31;;;;;;;0.93;0.93;;;25.00;88.10;;;;;;4970169;28;20458;-87
2023/09/04 12:44:57;;;;;;;2.07;1.30;;;25.20;86.30;;;;;;4970840;28;20465;-87
2023/09/04 12:47:22;;;;;;;0.90;0.80;;;25.30;84.90;;;;;;4970174;28;20822;-85
2023/09/04 12:49:48;;;;;;;1.60;1.60;;;25.40;84.40;;;;;;4980045;28;20732;-87
2023/09/04 12:52:14;;;;;;;0.93;0.93;;;25.50;85.50;;;;;;4974545;28;20540;-87
2023/09/04 12:54:39;;;;;;;2.20;0.90;;;25.60;85.90;;;;;;4981637;28;20433;-89
2023/09/04 12:57:05;;;;;;;2.60;1.20;;;25.70;86.70;;;;;;4987072;28;20205;-86
2023/09/04 12:59:30;;;;;;;1.20;1.10;;;25.80;86.20;;;;;;4986523;28;20179;-90
2023/09/04 13:01:56;;;;;;;1.83;1.23;;;25.80;85.60;;;;;;4986243;28;20234;-87
2023/09/04 13:04:22;;;;;;;0.80;0.80;;;25.90;85.70;;;;;;4986712;28;20274;-89
2023/09/04 13:06:47;;;;;;;1.03;0.93;;;25.90;84.30;;;;;;4986187;28;20232;-86
2023/09/04 13:09:13;;;;;;;1.40;1.03;;;26.00;84.40;;;;;;4987550;28;20202;-86
2023/09/04 13:11:38;;;;;;;1.30;0.80;;;26.00;84.00;;;;;;4986454;28;20203;-89
2023/09/04 13:14:04;;;;;;;1.30;1.20;;;26.00;83.30;;;;;;4986219;28;20178;-87
2023/09/04 13:16:29;;;;;;;0.83;0.80;;;26.00;84.10;;;;;;4981739;28;20230;-86
2023/09/04 13:18:56;;;;;;;1.47;1.37;;;26.10;83.80;;;;;;4973970;28;20171;-86
2023/09/04 13:21:22;;;;;;;1.00;1.00;;;26.20;83.60;;;;;;4973718;28;20657;-87
2023/09/04 13:23:47;;;;;;;1.03;0.97;;;26.20;82.40;;;;;;4974133;28;20456;-87
2023/09/04 13:26:13;;;;;;;1.00;0.97;;;26.30;83.50;;;;;;4974076;28;20198;-87
2023/09/04 13:28:38;;;;;;;2.80;1.00;;;26.30;83.10;;;;;;4974178;28;20463;-87
2023/09/04 13:31:05;;;;;;;1.00;0.90;;;26.40;82.80;;;;;;4980846;28;20305;-86
2023/09/04 13:33:33;;;;;;;0.70;0.70;;;26.40;81.90;;;;;;4981774;28;20273;-86
2023/09/04 13:35:58;;;;;;;2.57;1.00;;;26.40;82.40;;;;;;4981438;28;20445;-87
2023/09/04 13:38:25;;;;;;;1.00;0.80;;;26.40;82.60;;;;;;4978033;28;20418;-87
2023/09/04 13:40:50;;;;;;;2.33;1.37;;;26.30;82.50;;;;;;4974206;28;20187;-87
2023/09/04 13:43:16;;;;;;;1.63;1.53;;;26.40;83.10;;;;;;4973876;28;20421;-87
2023/09/04 13:45:42;;;;;;;1.00;0.90;;;26.50;83.40;;;;;;4973136;28;20680;-87
2023/09/04 13:48:07;;;;;;;1.37;1.27;;;26.60;83.30;;;;;;4973308;28;20489;-87
2023/09/04 13:50:33;;;;;;;1.07;1.03;;;26.70;82.90;;;;;;4978664;28;20241;-86
2023/09/04 13:52:59;;;;;;;0.60;0.60;;;26.80;83.00;;;;;;4977681;28;20191;-87
2023/09/04 13:55:24;;;;;;;1.10;1.07;;;26.90;82.80;;;;;;4981481;28;20202;-87
2023/09/04 13:57:50;;;;;;;1.13;1.03;;;26.80;80.90;;;;;;4980218;28;20174;-87
2023/09/04 14:00:15;;;;;;;0.90;0.80;;;26.80;82.30;;;;;;4972853;28;20186;-87
2023/09/04 14:02:42;;;;;;;3.67;1.20;;;26.90;82.90;;;;;;4973273;28;20235;-86
2023/09/04 14:05:10;;;;;;;0.83;0.77;;;27.00;83.60;;;;;;4978367;28;20245;-87
2023/09/04 14:07:37;;;;;;;1.13;1.10;;;27.00;82.50;;;;;;4981253;28;20951;-87
2023/09/04 14:10:03;;;;;;;1.33;1.20;;;27.10;82.60;;;;;;4971440;28;20553;-87
2023/09/04 14:12:29;;;;;;;1.23;0.97;;;27.20;83.00;;;;;;4971379;28;20428;-86
2023/09/04 14:14:56;;;;;;;1.00;0.90;;;27.20;82.80;;;;;;4972355;28;20430;-86
2023/09/04 14:17:21;;;;;;;9.77;1.20;;;27.30;83.30;;;;;;4972512;28;20920;-87
2023/09/04 14:19:47;;;;;;;1.43;1.10;;;27.40;82.00;;;;;;4973218;28;20524;-87
2023/09/04 14:22:12;;;;;;;1.67;0.93;;;27.40;83.00;;;;;;4973025;28;20557;-85
2023/09/04 14:24:38;;;;;;;0.90;0.80;;;27.40;82.00;;;;;;4972749;28;20255;-87
2023/09/04 14:27:04;;;;;;;1.87;1.10;;;27.40;81.60;;;;;;4973019;28;20589;-87
2023/09/04 14:29:30;;;;;;;2.50;1.57;;;27.30;81.30;;;;;;4972914;28;20600;-87
2023/09/04 14:31:56;;;;;;;1.00;0.93;;;27.30;82.10;;;;;;4973972;28;20591;-87
2023/09/04 14:34:22;;;;;;;1.27;1.17;;;27.30;82.10;;;;;;4974040;28;20182;-86
2023/09/04 14:36:47;;;;;;;1.80;1.77;;;27.40;82.40;;;;;;4973878;28;20815;-87
2023/09/04 14:39:14;;;;;;;0.60;0.60;;;27.50;83.00;;;;;;4972533;28;20206;-86
2023/09/04 14:41:39;;;;;;;3.33;0.80;;;27.60;82.40;;;;;;4973050;28;20594;-86
2023/09/04 14:44:05;;;;;;;2.40;1.57;;;27.60;82.40;;;;;;4972541;28;20513;-87
2023/09/04 14:46:33;;;;;;;1.03;0.90;;;27.70;81.90;;;;;;4972330;28;20202;-87
2023/09/04 14:48:59;;;;;;;1.00;0.90;;;27.70;81.60;;;;;;4972763;28;20461;-87
2023/09/04 14:51:25;;;;;;;0.90;0.90;;;27.70;80.50;;;;;;4979621;28;20508;-84
2023/09/04 14:53:54;;;;;;;2.70;1.37;;;27.60;81.00;;;;;;4972392;28;20748;-87
2023/09/04 14:56:25;;;;;;;5.10;1.43;;;27.70;81.00;;;;;;4971371;28;20202;-87
2023/09/04 14:58:54;;;;;;;0.90;0.90;;;27.70;80.60;;;;;;4972270;28;20525;-86
2023/09/04 15:01:22;;;;;;;1.10;1.00;;;27.70;80.20;;;;;;4973299;28;20513;-86
2023/09/04 15:03:49;;;;;;;1.10;1.00;;;27.70;80.20;;;;;;4971395;28;20437;-86
2023/09/04 15:06:16;;;;;;;1.00;0.90;;;27.70;80.50;;;;;;4971355;28;20450;-87
2023/09/04 15:08:41;;;;;;;5.20;2.33;;;27.60;79.30;;;;;;4971750;28;21016;-87
2023/09/04 15:11:12;;;;;;;0.83;0.73;;;27.60;79.70;;;;;;4970004;28;20549;-88
2023/09/04 15:13:37;;;;;;;3.73;2.13;;;27.60;79.10;;;;;;4972941;28;20183;-86
2023/09/04 15:16:04;;;;;;;1.07;0.97;;;27.60;78.40;;;;;;4973991;28;20553;-86
2023/09/04 15:18:33;;;;;;;0.80;0.70;;;27.50;79.00;;;;;;4970057;28;20425;-85
2023/09/04 15:21:00;;;;;;;1.00;0.90;;;27.50;78.80;;;;;;4962360;28;20778;-87
2023/09/04 15:23:28;;;;;;;7.03;1.27;;;27.40;79.90;;;;;;4969900;28;20433;-86
2023/09/04 15:25:54;;;;;;;6.43;1.13;;;27.50;80.30;;;;;;4971542;28;20489;-87
2023/09/04 15:28:19;;;;;;;0.90;0.80;;;27.60;80.20;;;;;;4971589;28;20449;-86
2023/09/04 15:30:45;;;;;;;0.83;0.83;;;27.70;80.10;;;;;;4972058;28;20999;-86
2023/09/04 15:33:10;;;;;;;1.37;1.23;;;27.70;79.40;;;;;;4976488;28;20174;-86
2023/09/04 15:35:36;;;;;;;0.80;0.80;;;27.80;80.20;;;;;;4973502;28;20198;-87
2023/09/04 15:38:02;;;;;;;2.70;0.70;;;27.80;79.30;;;;;;4969502;28;20670;-87
2023/09/04 15:40:27;;;;;;;1.57;1.20;;;27.90;79.70;;;;;;4970769;28;20186;-87
2023/09/04 15:42:53;;;;;;;1.53;1.30;;;28.00;79.70;;;;;;4971082;28;20189;-87
2023/09/04 15:45:19;;;;;;;0.90;0.80;;;28.00;79.50;;;;;;4971000;28;20261;-86
2023/09/04 15:47:45;;;;;;;1.10;0.93;;;28.10;79.40;;;;;;4972190;28;20458;-87
2023/09/04 15:50:11;;;;;;;1.20;1.10;;;28.10;78.90;;;;;;4971035;28;20209;-87
2023/09/04 15:52:36;;;;;;;0.90;0.80;;;28.10;78.60;;;;;;4972255;28;20190;-87
2023/09/04 15:55:02;;;;;;;8.40;1.13;;;28.10;79.10;;;;;;4970957;28;20422;-86
2023/09/04 15:57:28;;;;;;;1.43;1.33;;;28.10;79.10;;;;;;4971024;28;20269;-87
2023/09/04 15:59:53;;;;;;;2.53;1.67;;;28.10;79.00;;;;;;4970599;28;20213;-86
2023/09/04 16:02:19;;;;;;;0.90;0.90;;;28.20;78.90;;;;;;4971025;28;20294;-86
2023/09/04 16:04:44;;;;;;;0.80;0.70;;;28.20;78.70;;;;;;4970996;28;20186;-86
2023/09/04 16:07:10;;;;;;;3.33;1.23;;;28.20;78.30;;;;;;4972699;28;20202;-86
2023/09/04 16:09:36;;;;;;;0.90;0.80;;;28.20;78.50;;;;;;4978544;28;20209;-86
2023/09/04 16:12:02;;;;;;;0.80;0.80;;;28.20;78.50;;;;;;4979197;28;20233;-85
2023/09/04 16:14:28;;;;;;;1.33;0.80;;;28.10;78.60;;;;;;4972565;28;20182;-88
2023/09/04 16:16:54;;;;;;;1.10;1.00;;;28.10;78.20;;;;;;5021428;23;20493;-64
2023/09/04 16:19:19;;;;;;;2.60;0.83;;;28.10;78.10;;;;;;4979642;28;20194;-63
2023/09/04 16:21:47;;;;;;;1.17;1.13;;;28.00;77.90;;;;;;4972511;28;20198;-64
2023/09/04 16:24:13;;;;;;;2.00;1.07;;;28.00;78.10;;;;;;4971883;28;20189;-64
2023/09/04 16:26:39;;;;;;;0.87;0.77;;;27.90;78.50;;;;;;4970860;28;20426;-63
2023/09/04 16:29:08;;;;;;;1.00;0.70;;;27.90;78.40;;;;;;4971466;28;20473;-63
2023/09/04 16:31:34;;;;;;;1.00;0.90;;;27.80;78.30;;;;;;4971947;28;20214;-64
2023/09/04 16:34:03;;;;;;;0.93;0.87;;;27.80;78.50;;;;;;4968313;28;20986;-62
2023/09/04 16:36:32;;;;;;;0.80;0.70;;;27.80;78.90;;;;;;4970356;28;20422;-63
2023/09/04 16:38:59;;;;;;;1.20;0.80;;;27.70;78.60;;;;;;4972391;28;20496;-64
2023/09/04 16:41:24;;;;;;;1.27;0.97;;;27.60;78.70;;;;;;4970846;28;20468;-64
2023/09/04 16:43:50;;;;;;;0.83;0.77;;;27.60;78.80;;;;;;4972389;28;20800;-64
2023/09/04 16:46:16;;;;;;;1.00;0.90;;;27.40;78.90;;;;;;4972971;28;20693;-64